Time;durP1;ratioP1;P1;durP2;ratioP2;P2;SDS_P1;SDS_P2;PMS_P1;PMS_P2;Temp;Humidity;BMP_temperature;BMP_pressure;BME280_temperature;BME280_humidity;BME280_pressure;Samples;Min_cycle;Max_cycle;Signal;HPM_P1;HPM_P2
2023/01/30 00:00:39;;;;;;;15.40;9.60;;;;;;;1.87;81.51;99917.33;130945;1256;105698;-74
2023/01/30 00:03:59;;;;;;;14.30;8.90;;;;;;;1.88;81.30;99911.64;130948;1260;107734;-74
2023/01/30 00:07:04;;;;;;;13.10;8.20;;;;;;;1.87;81.20;99909.45;130966;1257;107927;-74
2023/01/30 00:10:11;;;;;;;13.00;8.90;;;;;;;1.85;81.45;99906.05;130935;1261;107537;-74
2023/01/30 00:13:17;;;;;;;13.10;8.40;;;;;;;1.81;81.36;99904.05;130950;1268;107196;-74
2023/01/30 00:16:23;;;;;;;15.00;9.60;;;;;;;1.77;81.46;99894.52;130884;1262;107557;-75
2023/01/30 00:19:28;;;;;;;13.00;8.10;;;;;;;1.75;81.55;99885.85;131040;1262;107510;-75
2023/01/30 00:22:34;;;;;;;11.80;7.50;;;;;;;1.77;81.51;99879.73;131012;1256;107540;-74
2023/01/30 00:25:39;;;;;;;13.00;8.20;;;;;;;1.81;81.59;99871.61;131075;1257;107580;-76
2023/01/30 00:28:45;;;;;;;13.40;8.40;;;;;;;1.83;81.36;99857.23;130970;1257;107621;-74
2023/01/30 00:31:50;;;;;;;12.10;8.00;;;;;;;1.82;81.49;99853.61;130962;1262;107217;-74
2023/01/30 00:34:56;;;;;;;12.90;8.50;;;;;;;1.78;81.43;99848.30;131067;1256;107899;-71
2023/01/30 00:38:02;;;;;;;12.00;8.10;;;;;;;1.77;81.36;99848.02;130856;1262;107352;-72
2023/01/30 00:41:09;;;;;;;12.20;8.20;;;;;;;1.76;81.32;99835.66;131001;1260;108585;-74
2023/01/30 00:47:38;;;;;;;15.20;8.70;;;;;;;1.71;81.41;99821.44;130943;1260;108667;-75
2023/01/30 00:50:44;;;;;;;12.50;7.90;;;;;;;1.70;81.19;99816.24;130879;1263;107574;-74
2023/01/30 00:53:50;;;;;;;12.20;7.40;;;;;;;1.73;81.27;99809.00;130888;1261;106568;-73
2023/01/30 00:56:56;;;;;;;15.00;9.30;;;;;;;1.80;81.28;99801.48;130891;1262;107582;-73
2023/01/30 01:00:05;;;;;;;19.20;11.40;;;;;;;1.87;81.33;99792.96;131060;1263;107512;-73
2023/01/30 01:03:10;;;;;;;17.20;10.60;;;;;;;1.88;81.15;99780.03;131219;1260;107446;-74
2023/01/30 01:06:16;;;;;;;17.80;11.30;;;;;;;1.88;80.96;99776.71;130989;1257;107630;-74
2023/01/30 01:09:21;;;;;;;19.40;11.80;;;;;;;1.85;80.96;99767.64;130761;1263;107565;-74
2023/01/30 01:12:27;;;;;;;16.90;11.20;;;;;;;1.82;80.91;99767.03;131066;1263;107558;-74
2023/01/30 01:15:33;;;;;;;20.00;12.60;;;;;;;1.79;81.00;99757.61;130976;1262;107702;-74
2023/01/30 01:18:38;;;;;;;19.30;10.90;;;;;;;1.72;81.03;99746.67;130895;1270;106428;-74
2023/01/30 01:21:45;;;;;;;20.00;11.40;;;;;;;1.67;80.91;99737.02;130909;1261;107557;-77
2023/01/30 01:24:51;;;;;;;16.60;10.00;;;;;;;1.66;81.00;99730.10;130975;1257;107432;-74
2023/01/30 01:27:56;;;;;;;18.10;10.50;;;;;;;1.67;80.93;99721.59;131028;1256;107553;-74
2023/01/30 01:31:06;;;;;;;17.90;10.60;;;;;;;1.70;80.74;99714.21;131007;1263;106395;-75
2023/01/30 01:34:12;;;;;;;17.50;10.90;;;;;;;1.71;80.59;99703.97;130982;1262;108675;-73
2023/01/30 01:37:18;;;;;;;16.30;10.60;;;;;;;1.68;80.42;99696.31;130939;1260;107835;-76
2023/01/30 01:44:06;;;;;;;17.90;10.30;;;;;;;1.63;80.54;99700.35;130911;1269;107328;-76
2023/01/30 01:47:12;;;;;;;18.00;10.30;;;;;;;1.62;80.53;99696.90;130928;1261;107847;-76
2023/01/30 01:50:23;;;;;;;16.80;10.70;;;;;;;1.60;80.45;99696.35;130953;1260;107662;-73
2023/01/30 01:53:34;;;;;;;20.30;11.20;;;;;;;1.54;80.40;99696.73;130853;1262;107778;-74
2023/01/30 01:56:43;;;;;;;17.40;10.40;;;;;;;1.52;80.52;99689.48;130829;1267;107443;-73
2023/01/30 01:59:52;;;;;;;16.10;9.40;;;;;;;1.55;80.34;99677.01;130861;1263;107471;-76
2023/01/30 02:03:01;;;;;;;18.30;10.50;;;;;;;1.62;80.46;99675.33;130851;1269;107459;-74
2023/01/30 02:06:08;;;;;;;18.20;11.10;;;;;;;1.66;80.46;99668.36;131050;1260;107543;-74
2023/01/30 02:09:16;;;;;;;17.90;11.20;;;;;;;1.70;80.29;99664.77;131041;1262;107522;-74
2023/01/30 02:12:21;;;;;;;20.90;12.20;;;;;;;1.68;79.97;99659.61;130903;1262;107273;-76
2023/01/30 02:15:27;;;;;;;21.00;11.90;;;;;;;1.64;79.85;99651.89;130964;1261;107516;-74
2023/01/30 02:18:35;;;;;;;18.40;11.90;;;;;;;1.60;79.97;99649.52;131112;1257;106465;-74
2023/01/30 02:22:15;;;;;;;20.60;12.10;;;;;;;1.56;79.86;99639.11;131071;1269;107958;-74
2023/01/30 02:25:47;;;;;;;20.00;12.10;;;;;;;1.51;80.01;99640.15;131094;1261;106535;-74
2023/01/30 02:29:22;;;;;;;20.80;12.20;;;;;;;1.46;80.07;99633.32;130987;1264;107909;-74
2023/01/30 02:32:34;;;;;;;22.00;13.00;;;;;;;1.41;80.05;99628.98;130978;1262;108685;-75
2023/01/30 02:35:48;;;;;;;22.30;12.30;;;;;;;1.41;80.00;99620.23;131058;1270;107407;-73
2023/01/30 02:39:02;;;;;;;18.30;11.00;;;;;;;1.42;80.20;99616.47;131002;1260;107719;-76
2023/01/30 02:42:19;;;;;;;21.90;12.20;;;;;;;1.47;80.08;99609.63;130861;1262;107444;-72
2023/01/30 02:45:30;;;;;;;20.00;12.00;;;;;;;1.52;80.17;99598.35;130897;1262;107521;-75
2023/01/30 02:48:41;;;;;;;19.30;12.00;;;;;;;1.52;80.19;99590.80;130994;1263;107583;-74
2023/01/30 02:51:49;;;;;;;21.20;11.70;;;;;;;1.52;79.97;99583.66;131009;1263;107662;-75
2023/01/30 02:54:55;;;;;;;17.70;11.40;;;;;;;1.47;80.19;99575.97;131047;1260;107533;-74
2023/01/30 02:58:03;;;;;;;20.10;11.90;;;;;;;1.46;80.20;99562.89;131022;1263;107579;-72
2023/01/30 03:01:35;;;;;;;22.30;12.80;;;;;;;1.44;80.14;99557.95;131070;1269;107235;-74
2023/01/30 03:04:57;;;;;;;22.60;13.40;;;;;;;1.39;80.04;99560.76;130897;1264;107536;-73
2023/01/30 03:08:17;;;;;;;23.90;13.10;;;;;;;1.33;79.95;99553.69;131073;1262;108134;-74
2023/01/30 03:11:30;;;;;;;25.40;13.50;;;;;;;1.26;79.99;99546.51;130940;1270;107627;-74
2023/01/30 03:14:39;;;;;;;;;;;;;;;1.24;79.97;99532.62;130919;1262;107519;-74
2023/01/30 03:17:47;;;;;;;24.20;12.30;;;;;;;1.28;79.89;99520.77;130889;1261;107561;-75
2023/01/30 03:20:55;;;;;;;20.90;11.30;;;;;;;1.31;79.75;99510.01;131156;1262;107433;-71
2023/01/30 03:24:00;;;;;;;21.00;12.00;;;;;;;1.30;79.63;99496.91;131050;1258;107390;-75
2023/01/30 03:27:11;;;;;;;19.50;12.20;;;;;;;1.29;79.61;99479.85;130927;1267;107931;-76
2023/01/30 03:30:17;;;;;;;20.10;12.30;;;;;;;1.28;79.53;99469.09;130886;1270;107278;-74
2023/01/30 03:33:25;;;;;;;19.80;12.10;;;;;;;1.23;79.49;99467.33;130827;1257;109118;-74
2023/01/30 03:36:31;;;;;;;18.40;11.20;;;;;;;1.19;79.30;99459.01;130773;1268;108372;-76
2023/01/30 03:39:36;;;;;;;17.60;10.30;;;;;;;1.14;79.32;99448.01;130872;1266;107543;-72
2023/01/30 03:42:44;;;;;;;19.00;10.30;;;;;;;1.07;79.35;99444.83;131068;1257;107527;-73
2023/01/30 03:45:50;;;;;;;19.00;10.60;;;;;;;1.02;79.29;99437.50;131261;1266;107520;-72
2023/01/30 03:48:56;;;;;;;17.00;9.10;;;;;;;1.02;79.34;99434.18;131154;1261;107534;-75
2023/01/30 03:52:01;;;;;;;17.50;9.70;;;;;;;1.08;79.33;99429.02;131059;1257;107482;-75
2023/01/30 03:55:08;;;;;;;15.50;9.50;;;;;;;1.12;79.12;99416.21;130897;1264;107448;-74
2023/01/30 03:58:16;;;;;;;16.30;8.80;;;;;;;1.15;79.17;99404.84;131091;1261;108003;-80
2023/01/30 04:01:23;;;;;;;14.70;8.60;;;;;;;1.15;78.91;99404.08;131565;1258;109111;-78
2023/01/30 04:04:29;;;;;;;15.20;9.30;;;;;;;1.15;78.95;99390.08;131022;1269;106569;-78
2023/01/30 04:07:34;;;;;;;15.20;9.00;;;;;;;1.13;78.94;99379.52;130933;1258;105541;-77
2023/01/30 04:10:40;;;;;;;14.20;7.90;;;;;;;1.11;79.07;99371.48;131676;1257;107563;-76
2023/01/30 04:13:46;;;;;;;13.60;8.30;;;;;;;1.06;78.90;99370.81;131578;1257;107538;-77
2023/01/30 04:16:52;;;;;;;14.10;8.10;;;;;;;1.04;79.07;99359.62;130889;1258;107834;-78
2023/01/30 04:20:18;;;;;;;13.20;8.30;;;;;;;1.01;78.86;99356.67;130902;1269;107463;-77
2023/01/30 04:23:28;;;;;;;14.10;8.40;;;;;;;0.97;78.99;99355.89;130878;1262;107882;-78
2023/01/30 04:26:33;;;;;;;13.30;7.60;;;;;;;0.99;78.91;99349.44;130941;1258;107848;-76
2023/01/30 04:29:41;;;;;;;12.70;8.00;;;;;;;1.03;78.88;99346.89;131197;1260;107633;-77
2023/01/30 04:32:48;;;;;;;13.80;7.80;;;;;;;1.06;78.69;99339.81;131109;1258;106496;-77
2023/01/30 04:35:55;;;;;;;12.30;7.90;;;;;;;1.06;78.67;99327.56;130890;1257;107540;-77
2023/01/30 04:39:01;;;;;;;12.90;7.80;;;;;;;1.05;78.81;99324.66;130876;1263;107657;-78
2023/01/30 04:42:08;;;;;;;14.50;8.30;;;;;;;1.05;78.83;99315.34;131139;1258;107567;-77
2023/01/30 04:45:18;;;;;;;14.40;8.60;;;;;;;1.01;78.68;99313.05;131108;1261;107488;-77
2023/01/30 04:48:25;;;;;;;14.10;8.40;;;;;;;0.96;78.78;99324.95;130841;1258;107452;-76
2023/01/30 04:51:31;;;;;;;13.50;8.80;;;;;;;0.91;78.79;99326.22;130876;1274;107541;-76
2023/01/30 04:54:37;;;;;;;19.10;9.80;;;;;;;0.87;79.04;99320.77;130896;1258;109027;-77
2023/01/30 04:57:42;;;;;;;14.70;8.20;;;;;;;0.83;78.97;99314.26;130872;1262;106755;-77
2023/01/30 05:00:49;;;;;;;13.90;7.90;;;;;;;0.84;79.01;99306.48;131050;1258;107498;-77
2023/01/30 05:03:55;;;;;;;13.60;8.30;;;;;;;0.85;79.11;99292.40;131019;1260;107566;-77
2023/01/30 05:07:00;;;;;;;14.30;8.40;;;;;;;0.90;79.02;99288.47;131052;1260;107537;-76
2023/01/30 05:10:07;;;;;;;14.20;8.60;;;;;;;0.93;78.97;99261.28;130987;1260;107531;-77
2023/01/30 05:13:13;;;;;;;14.90;9.20;;;;;;;0.91;78.60;99252.30;130924;1257;107498;-78
2023/01/30 05:16:19;;;;;;;14.80;9.10;;;;;;;0.86;78.65;99260.06;131108;1258;107405;-76
2023/01/30 05:19:25;;;;;;;13.90;8.60;;;;;;;0.84;78.67;99250.46;130961;1260;107265;-77
2023/01/30 05:22:31;;;;;;;13.90;8.60;;;;;;;0.82;78.68;99235.86;130897;1257;107536;-78
2023/01/30 05:25:36;;;;;;;14.10;9.20;;;;;;;0.79;78.66;99234.33;131141;1258;107607;-78
2023/01/30 05:28:42;;;;;;;15.60;8.80;;;;;;;0.75;78.49;99234.81;131015;1257;107491;-77
2023/01/30 05:31:47;;;;;;;17.80;10.20;;;;;;;0.72;78.60;99234.20;131101;1260;107325;-77
2023/01/30 05:34:53;;;;;;;17.60;9.80;;;;;;;0.72;78.53;99224.19;131058;1261;107522;-78
2023/01/30 05:37:58;;;;;;;16.50;8.70;;;;;;;0.75;78.45;99219.53;130950;1257;107640;-77
2023/01/30 05:41:05;;;;;;;15.90;9.50;;;;;;;0.80;78.21;99213.09;131284;1258;106554;-76
2023/01/30 05:44:12;;;;;;;14.30;9.00;;;;;;;0.85;78.16;99205.73;130952;1260;107261;-79
2023/01/30 05:47:17;;;;;;;15.30;8.80;;;;;;;0.88;78.02;99195.17;131051;1257;107657;-76
2023/01/30 05:50:23;;;;;;;13.00;8.80;;;;;;;0.91;77.89;99195.64;131135;1258;107581;-75
2023/01/30 05:53:33;;;;;;;15.00;9.30;;;;;;;0.90;77.91;99186.90;131152;1257;106743;-79
2023/01/30 05:56:38;;;;;;;14.10;8.80;;;;;;;0.91;77.91;99178.81;130950;1258;107491;-77
2023/01/30 05:59:44;;;;;;;16.70;9.60;;;;;;;0.89;77.81;99171.45;130922;1260;107690;-77
2023/01/30 06:02:49;;;;;;;16.60;9.70;;;;;;;0.85;77.56;99168.42;130929;1260;106645;-78
2023/01/30 06:05:56;;;;;;;14.60;9.50;;;;;;;0.81;77.70;99163.12;130921;1261;107388;-77
2023/01/30 06:09:01;;;;;;;16.40;9.70;;;;;;;0.79;77.69;99159.58;130990;1258;107575;-77
2023/01/30 06:12:08;;;;;;;16.50;9.50;;;;;;;0.76;77.65;99154.89;131084;1258;107440;-77
2023/01/30 06:15:14;;;;;;;16.10;10.30;;;;;;;0.73;77.49;99165.95;130968;1264;107370;-76
2023/01/30 06:18:20;;;;;;;17.20;10.40;;;;;;;0.69;77.31;99180.30;130867;1262;107543;-77
2023/01/30 06:21:26;;;;;;;18.90;10.40;;;;;;;0.66;77.46;99187.18;131005;1260;107545;-76
2023/01/30 06:24:31;;;;;;;15.20;9.00;;;;;;;0.68;77.63;99186.84;130933;1270;108301;-77
2023/01/30 06:27:37;;;;;;;15.20;8.90;;;;;;;0.75;77.67;99170.55;130938;1261;106575;-78
2023/01/30 06:30:43;;;;;;;14.80;9.60;;;;;;;0.83;77.56;99163.16;130969;1261;107615;-76
2023/01/30 06:33:48;;;;;;;15.70;8.90;;;;;;;0.89;77.35;99155.86;131200;1261;107404;-77
2023/01/30 06:36:54;;;;;;;16.20;9.70;;;;;;;0.91;77.23;99146.02;131018;1262;107962;-78
2023/01/30 06:40:00;;;;;;;16.20;9.70;;;;;;;0.90;77.18;99138.64;130874;1260;109099;-76
2023/01/30 06:43:05;;;;;;;16.20;9.60;;;;;;;0.88;77.38;99134.55;130872;1257;107618;-77
2023/01/30 06:46:11;;;;;;;16.00;9.90;;;;;;;0.83;77.35;99129.39;130938;1257;107518;-76
2023/01/30 06:49:17;;;;;;;15.30;9.80;;;;;;;0.78;77.55;99121.65;131067;1256;108008;-78
2023/01/30 06:52:22;;;;;;;15.00;9.80;;;;;;;0.73;77.81;99118.36;130917;1260;107625;-77
2023/01/30 06:55:28;;;;;;;17.70;10.70;;;;;;;0.68;77.79;99120.16;130879;1262;107550;-76
2023/01/30 06:58:35;;;;;;;17.00;10.80;;;;;;;0.66;77.84;99114.50;131015;1256;107801;-77
2023/01/30 07:01:40;;;;;;;17.80;10.80;;;;;;;0.69;77.85;99101.54;131045;1261;107499;-76
2023/01/30 07:04:46;;;;;;;15.60;9.00;;;;;;;0.76;77.82;99094.73;131143;1260;107537;-76
2023/01/30 07:07:53;;;;;;;16.50;9.90;;;;;;;0.83;77.49;99100.66;130955;1257;107925;-78
2023/01/30 07:10:58;;;;;;;17.30;10.10;;;;;;;0.90;77.21;99097.96;130935;1257;107255;-77
2023/01/30 07:14:04;;;;;;;18.50;10.70;;;;;;;0.95;76.85;99099.67;130923;1276;107515;-77
2023/01/30 07:17:09;;;;;;;19.40;11.60;;;;;;;0.96;76.78;99089.10;131053;1260;108162;-77
2023/01/30 07:20:15;;;;;;;16.90;11.00;;;;;;;0.97;76.69;99071.64;130925;1257;107582;-78
2023/01/30 07:23:21;;;;;;;17.00;11.30;;;;;;;0.96;76.52;99060.21;131020;1261;107248;-77
2023/01/30 07:26:28;;;;;;;18.30;11.20;;;;;;;0.94;76.71;99052.70;130919;1257;107631;-78
2023/01/30 07:29:34;;;;;;;18.50;11.10;;;;;;;0.91;76.57;99042.60;130959;1256;107510;-77
2023/01/30 07:32:39;;;;;;;20.10;11.80;;;;;;;0.88;76.75;99035.98;130985;1258;108901;-77
2023/01/30 07:35:45;;;;;;;18.80;11.80;;;;;;;0.86;76.61;99030.40;130940;1258;105551;-78
2023/01/30 07:38:51;;;;;;;19.40;12.10;;;;;;;0.83;76.94;99028.51;131089;1257;107523;-76
2023/01/30 07:41:56;;;;;;;19.70;12.70;;;;;;;0.83;76.87;99027.30;130939;1256;107679;-77
2023/01/30 07:45:03;;;;;;;19.80;12.30;;;;;;;0.81;77.00;99023.06;131112;1256;107621;-77
2023/01/30 07:48:10;;;;;;;22.50;13.00;;;;;;;0.76;77.15;99022.92;130967;1260;107470;-78
2023/01/30 07:51:16;;;;;;;23.50;14.30;;;;;;;0.73;77.40;99022.13;130958;1260;107470;-77
2023/01/30 07:54:22;;;;;;;21.40;11.90;;;;;;;0.76;77.51;99023.42;131010;1258;107536;-76
2023/01/30 07:57:27;;;;;;;22.90;12.80;;;;;;;0.80;77.63;99022.44;130976;1257;107468;-77
2023/01/30 08:00:34;;;;;;;19.90;12.00;;;;;;;0.83;77.70;99027.28;130912;1260;106030;-78
2023/01/30 08:03:39;;;;;;;52.30;27.20;;;;;;;0.87;77.70;99018.06;131089;1260;107723;-77
2023/01/30 08:06:45;;;;;;;77.30;36.10;;;;;;;0.86;77.86;99013.91;130988;1256;109237;-77
2023/01/30 08:09:51;;;;;;;27.40;15.90;;;;;;;0.85;77.83;99011.88;131040;1257;107347;-77
2023/01/30 08:12:56;;;;;;;26.80;17.40;;;;;;;0.85;77.95;99001.58;131004;1260;107595;-77
2023/01/30 08:16:02;;;;;;;21.60;13.20;;;;;;;0.88;77.87;98997.17;131050;1260;107466;-77
2023/01/30 08:19:08;;;;;;;22.10;13.00;;;;;;;0.88;77.76;99002.77;130943;1257;107450;-77
2023/01/30 08:22:15;;;;;;;162.20;56.70;;;;;;;0.88;77.72;98998.20;130921;1260;107862;-79
2023/01/30 08:25:21;;;;;;;28.90;16.70;;;;;;;0.87;77.73;99000.58;130928;1270;106560;-77
2023/01/30 08:28:27;;;;;;;23.70;14.20;;;;;;;0.83;77.60;99002.93;131049;1261;107452;-77
2023/01/30 08:31:33;;;;;;;20.90;11.70;;;;;;;0.84;77.87;98999.54;131105;1269;107255;-77
2023/01/30 08:34:38;;;;;;;125.20;60.80;;;;;;;0.90;77.89;98995.27;130897;1256;108543;-76
2023/01/30 08:37:44;;;;;;;32.50;17.20;;;;;;;0.95;77.88;98982.72;131188;1256;107548;-79
2023/01/30 08:40:50;;;;;;;340.80;149.60;;;;;;;1.02;77.92;98975.70;131005;1260;106369;-79
2023/01/30 08:43:56;;;;;;;95.70;49.70;;;;;;;1.05;78.03;98968.67;130909;1257;107581;-77
2023/01/30 08:47:01;;;;;;;79.50;39.50;;;;;;;1.02;78.73;98965.33;130943;1257;107646;-77
2023/01/30 08:50:10;;;;;;;47.90;27.60;;;;;;;0.97;78.47;98962.77;130945;1260;107891;-78
2023/01/30 08:53:16;;;;;;;464.90;153.40;;;;;;;0.97;78.67;98967.99;130952;1256;107517;-77
2023/01/30 08:56:21;;;;;;;90.40;32.90;;;;;;;0.96;78.61;98961.84;130949;1268;107604;-77
2023/01/30 08:59:27;;;;;;;26.00;15.10;;;;;;;0.93;78.88;98955.92;131107;1256;105702;-78
2023/01/30 09:02:32;;;;;;;25.80;15.20;;;;;;;0.92;79.00;98948.67;131079;1260;107502;-77
2023/01/30 09:05:38;;;;;;;22.20;12.90;;;;;;;0.96;79.07;98943.23;130953;1261;107970;-77
2023/01/30 09:08:44;;;;;;;25.00;15.60;;;;;;;1.05;79.03;98940.48;131259;1254;107949;-78
2023/01/30 09:11:50;;;;;;;20.50;13.20;;;;;;;1.14;79.02;98930.19;131231;1253;107451;-77
2023/01/30 09:14:57;;;;;;;22.40;14.30;;;;;;;1.23;78.96;98917.59;131317;1256;107602;-78
2023/01/30 09:18:03;;;;;;;23.90;14.90;;;;;;;1.29;78.91;98926.91;131220;1254;108050;-78
2023/01/30 09:21:10;;;;;;;45.80;27.20;;;;;;;1.33;78.97;98925.50;131315;1252;107216;-77
2023/01/30 09:24:16;;;;;;;34.20;19.60;;;;;;;1.35;79.06;98920.77;131281;1256;107236;-76
2023/01/30 09:27:21;;;;;;;35.30;20.40;;;;;;;1.35;78.95;98913.27;130896;1253;107569;-76
2023/01/30 09:30:27;;;;;;;25.00;14.90;;;;;;;1.36;78.99;98913.39;130716;1253;108625;-75
2023/01/30 09:33:33;;;;;;;24.30;14.10;;;;;;;1.36;78.95;98904.27;130669;1257;107383;-75
2023/01/30 09:36:39;;;;;;;23.80;14.60;;;;;;;1.38;79.14;98902.54;130790;1257;107526;-77
2023/01/30 09:39:44;;;;;;;26.50;17.10;;;;;;;1.43;79.24;98895.23;130872;1254;107418;-77
2023/01/30 09:43:09;;;;;;;46.20;22.30;;;;;;;1.47;79.24;98888.60;130807;1253;107486;-76
2023/01/30 09:46:26;;;;;;;21.20;14.20;;;;;;;1.54;79.32;98887.12;130870;1265;107275;-76
2023/01/30 09:49:43;;;;;;;23.70;15.10;;;;;;;1.58;79.16;98887.69;130893;1253;107373;-77
2023/01/30 09:52:57;;;;;;;42.70;26.40;;;;;;;1.58;79.25;98871.53;130705;1271;107217;-77
2023/01/30 09:56:02;;;;;;;33.00;20.90;;;;;;;1.59;79.28;98864.87;130714;1253;107381;-76
2023/01/30 09:59:15;;;;;;;576.30;382.90;;;;;;;1.59;79.30;98861.19;130693;1254;107597;-76
2023/01/30 10:02:44;;;;;;;75.20;41.10;;;;;;;1.59;79.62;98855.17;130708;1257;107347;-76
2023/01/30 10:05:52;;;;;;;25.20;16.30;;;;;;;1.56;79.90;98849.70;130600;1257;109198;-77
2023/01/30 10:09:08;;;;;;;19.60;12.10;;;;;;;1.56;79.92;98842.83;130777;1253;107232;-76
2023/01/30 10:12:30;;;;;;;16.70;10.60;;;;;;;1.62;80.02;98842.83;130565;1258;107175;-76
2023/01/30 10:15:48;;;;;;;36.20;26.90;;;;;;;1.70;80.54;98831.65;130787;1253;107406;-76
2023/01/30 10:19:11;;;;;;;18.50;12.60;;;;;;;1.81;80.36;98821.77;130721;1258;107396;-76
2023/01/30 10:22:21;;;;;;;;;;;;;;;1.91;80.20;98824.95;130720;1253;107595;-76
2023/01/30 10:25:32;;;;;;;24.90;13.10;;;;;;;1.93;80.37;98817.87;130617;1256;107280;-75
2023/01/30 10:28:43;;;;;;;17.10;11.00;;;;;;;1.90;80.42;98812.70;130644;1254;109036;-76
2023/01/30 10:31:50;;;;;;;16.70;10.90;;;;;;;1.86;80.51;98801.71;130762;1253;107351;-75
2023/01/30 10:35:00;;;;;;;17.90;10.80;;;;;;;1.84;80.48;98795.56;130615;1265;107543;-76
2023/01/30 10:38:13;;;;;;;17.40;11.40;;;;;;;1.83;80.47;98800.53;130830;1256;107516;-77
2023/01/30 10:41:26;;;;;;;15.10;10.30;;;;;;;1.86;80.61;98797.28;130808;1256;107374;-74
2023/01/30 10:44:32;;;;;;;14.10;9.40;;;;;;;1.88;80.43;98788.34;130789;1253;107501;-76
2023/01/30 10:47:51;;;;;;;41.80;24.50;;;;;;;1.89;80.56;98784.21;130578;1257;107321;-76
2023/01/30 10:50:59;;;;;;;24.90;14.70;;;;;;;1.93;80.57;98780.52;130573;1253;107534;-76
2023/01/30 10:54:13;;;;;;;24.10;13.80;;;;;;;2.01;80.41;98781.52;130698;1258;108101;-76
2023/01/30 10:57:25;;;;;;;37.00;19.70;;;;;;;2.00;80.33;98778.77;130659;1253;106438;-76
2023/01/30 11:00:39;;;;;;;35.90;23.30;;;;;;;2.01;80.55;98772.87;130701;1253;107398;-76
2023/01/30 11:03:50;;;;;;;27.00;17.00;;;;;;;2.02;80.59;98764.90;130642;1258;106586;-77
2023/01/30 11:06:58;;;;;;;22.20;13.20;;;;;;;2.08;80.73;98760.81;130651;1257;108704;-77
2023/01/30 11:10:16;;;;;;;17.50;10.40;;;;;;;2.20;81.07;98751.95;130596;1265;107398;-76
2023/01/30 11:13:25;;;;;;;16.10;10.00;;;;;;;2.29;80.97;98752.47;130614;1253;107444;-75
2023/01/30 11:16:33;;;;;;;38.00;23.20;;;;;;;2.34;80.75;98751.88;130748;1254;107406;-76
2023/01/30 11:19:39;;;;;;;115.50;51.60;;;;;;;2.38;80.85;98746.77;130870;1259;107261;-75
2023/01/30 11:22:50;;;;;;;294.30;141.90;;;;;;;2.39;80.78;98738.56;130863;1253;107632;-76
2023/01/30 11:25:58;;;;;;;50.50;24.00;;;;;;;2.34;80.90;98731.81;130873;1259;109047;-77
2023/01/30 11:29:24;;;;;;;28.50;16.30;;;;;;;2.30;80.89;98733.08;130795;1267;107249;-76
2023/01/30 11:32:30;;;;;;;32.70;15.20;;;;;;;2.24;80.96;98723.66;130813;1257;107646;-76
2023/01/30 11:35:44;;;;;;;24.70;17.00;;;;;;;2.22;81.12;98715.17;130630;1257;107527;-76
2023/01/30 11:38:59;;;;;;;37.50;25.60;;;;;;;2.27;81.45;98715.60;130673;1265;107278;-77
2023/01/30 11:42:10;;;;;;;22.70;15.50;;;;;;;2.33;81.27;98716.80;130686;1253;107403;-75
2023/01/30 11:45:17;;;;;;;19.10;12.90;;;;;;;2.43;81.16;98713.19;130648;1258;107412;-76
2023/01/30 11:48:27;;;;;;;14.40;9.80;;;;;;;2.46;81.27;98700.61;130999;1254;107464;-77
2023/01/30 11:51:35;;;;;;;16.40;10.00;;;;;;;2.48;81.15;98694.84;130786;1261;108419;-76
2023/01/30 11:54:44;;;;;;;16.00;10.10;;;;;;;2.49;80.96;98686.64;130649;1256;107573;-76
2023/01/30 11:57:53;;;;;;;17.90;10.40;;;;;;;2.47;80.88;98693.15;130598;1265;107636;-77
2023/01/30 12:01:00;;;;;;;17.00;9.80;;;;;;;2.41;80.88;98688.63;130782;1257;107260;-75
2023/01/30 12:04:10;;;;;;;15.50;9.20;;;;;;;2.43;80.98;98678.45;130916;1259;107583;-74
2023/01/30 12:07:22;;;;;;;14.00;8.80;;;;;;;2.42;81.12;98679.23;130773;1253;107489;-76
2023/01/30 12:10:31;;;;;;;17.80;9.50;;;;;;;2.44;80.91;98681.45;130631;1258;107511;-76
2023/01/30 12:13:40;;;;;;;13.90;8.10;;;;;;;2.46;81.00;98683.78;130724;1252;106608;-75
2023/01/30 12:16:58;;;;;;;13.80;8.90;;;;;;;2.42;81.01;98685.73;130921;1253;107482;-76
2023/01/30 12:20:12;;;;;;;15.90;9.40;;;;;;;2.38;81.22;98682.73;131063;1253;107530;-76
2023/01/30 12:23:23;;;;;;;15.70;9.40;;;;;;;2.36;81.18;98686.89;131112;1254;107376;-75
2023/01/30 12:26:35;;;;;;;14.80;8.90;;;;;;;2.34;81.10;98680.94;131161;1253;107542;-76
2023/01/30 12:29:56;;;;;;;17.60;10.50;;;;;;;2.23;81.33;98675.13;131289;1252;107606;-77
2023/01/30 12:33:05;;;;;;;14.50;9.20;;;;;;;2.20;81.26;98666.15;131120;1257;107512;-77
2023/01/30 12:36:20;;;;;;;14.20;8.10;;;;;;;2.19;81.53;98670.23;131171;1269;107347;-76
2023/01/30 12:39:37;;;;;;;15.70;8.50;;;;;;;2.23;81.66;98673.73;131244;1257;107643;-76
2023/01/30 12:43:12;;;;;;;11.90;8.20;;;;;;;2.30;81.47;98672.86;131132;1253;107417;-76
2023/01/30 12:46:45;;;;;;;12.70;7.90;;;;;;;2.32;81.25;98677.15;131140;1253;107412;-76
2023/01/30 12:50:06;;;;;;;18.30;10.60;;;;;;;2.33;81.58;98685.08;130917;1257;107569;-75
2023/01/30 12:53:31;;;;;;;11.90;8.20;;;;;;;2.29;81.45;98693.13;131099;1259;107555;-76
2023/01/30 12:56:49;;;;;;;13.50;8.50;;;;;;;2.25;81.49;98686.31;131079;1265;107605;-76
2023/01/30 13:00:08;;;;;;;11.50;8.20;;;;;;;2.22;81.54;98691.21;131140;1257;108535;-77
2023/01/30 13:03:26;;;;;;;12.70;8.50;;;;;;;2.21;81.75;98688.31;131020;1256;107519;-78
2023/01/30 13:06:46;;;;;;;11.40;7.60;;;;;;;2.22;81.90;98680.96;131117;1253;107366;-76
2023/01/30 13:10:02;;;;;;;15.50;10.40;;;;;;;2.27;82.30;98677.88;131071;1254;107427;-78
2023/01/30 13:13:18;;;;;;;11.40;8.20;;;;;;;2.33;81.97;98680.66;131201;1253;107535;-76
2023/01/30 13:16:35;;;;;;;12.90;8.20;;;;;;;2.34;81.99;98681.30;131170;1253;107495;-77
2023/01/30 13:19:48;;;;;;;11.50;7.80;;;;;;;2.33;82.10;98677.02;131211;1262;107261;-76
2023/01/30 13:23:01;;;;;;;13.70;8.90;;;;;;;2.31;82.00;98678.06;131380;1256;107444;-75
2023/01/30 13:26:10;;;;;;;12.50;8.20;;;;;;;2.28;82.12;98676.57;131339;1258;107565;-75
2023/01/30 13:29:22;;;;;;;11.70;7.60;;;;;;;2.28;82.20;98679.78;131375;1253;107372;-74
2023/01/30 13:32:37;;;;;;;10.50;6.90;;;;;;;2.28;82.26;98677.31;131540;1253;107554;-74
2023/01/30 13:35:49;;;;;;;12.10;7.90;;;;;;;2.27;82.18;98677.25;131279;1253;107287;-75
2023/01/30 13:39:01;;;;;;;10.90;7.70;;;;;;;2.29;82.37;98677.04;131106;1257;107498;-75
2023/01/30 13:42:14;;;;;;;12.10;8.20;;;;;;;2.31;82.35;98677.23;131187;1253;107571;-74
2023/01/30 13:45:22;;;;;;;12.30;7.80;;;;;;;2.29;82.41;98677.89;131153;1254;107520;-76
2023/01/30 13:48:39;;;;;;;12.00;8.00;;;;;;;2.28;82.48;98678.34;131247;1253;107518;-77
2023/01/30 13:51:49;;;;;;;15.90;9.00;;;;;;;2.27;82.70;98682.45;131161;1257;107371;-75
2023/01/30 13:55:03;;;;;;;16.70;8.80;;;;;;;2.25;82.71;98681.45;131089;1258;107527;-76
2023/01/30 13:58:31;;;;;;;22.40;9.30;;;;;;;2.23;82.82;98680.41;131295;1253;107930;-75
2023/01/30 14:02:16;;;;;;;11.10;7.60;;;;;;;2.26;82.86;98672.88;131563;1253;107567;-74
2023/01/30 14:06:01;;;;;;;13.50;7.90;;;;;;;2.31;82.85;98675.26;131258;1253;107507;-76
2023/01/30 14:09:24;;;;;;;16.00;8.40;;;;;;;2.32;82.89;98679.92;131236;1258;107539;-75
2023/01/30 14:12:36;;;;;;;14.70;8.80;;;;;;;2.30;82.92;98679.26;131263;1253;107383;-75
2023/01/30 14:15:51;;;;;;;16.50;9.90;;;;;;;2.24;82.89;98679.20;131158;1253;107405;-74
2023/01/30 14:18:57;;;;;;;15.40;9.40;;;;;;;2.20;83.13;98683.63;131161;1256;108664;-75
2023/01/30 14:22:16;;;;;;;15.30;9.10;;;;;;;2.19;83.15;98689.01;131197;1257;107529;-74
2023/01/30 14:25:49;;;;;;;14.50;8.40;;;;;;;2.25;83.22;98691.05;131025;1257;107525;-76
2023/01/30 14:28:54;;;;;;;48.20;24.90;;;;;;;2.32;83.32;98693.94;131135;1253;107378;-76
2023/01/30 14:32:00;;;;;;;237.50;113.50;;;;;;;2.36;83.14;98689.55;131152;1253;107422;-76